createdAt,value
2022-12-11T00:00:56.365Z,19.83
2022-12-11T00:03:23.072Z,21.50
2022-12-11T00:05:49.925Z,22.23
2022-12-11T00:08:18.869Z,21.27
2022-12-11T00:10:49.876Z,20.67
2022-12-11T00:13:16.624Z,21.25
2022-12-11T00:15:45.524Z,19.48
2022-12-11T00:18:14.089Z,19.35
2022-12-11T00:20:40.958Z,18.70
2022-12-11T00:23:10.928Z,20.70
2022-12-11T00:25:45.497Z,20.08
2022-12-11T00:28:18.782Z,20.67
2022-12-11T00:30:46.119Z,19.17
2022-12-11T00:33:13.886Z,20.05
2022-12-11T00:35:42.637Z,20.65
2022-12-11T00:38:18.552Z,20.77
2022-12-11T00:40:48.000Z,19.83
2022-12-11T00:43:17.596Z,20.45
2022-12-11T00:45:46.975Z,21.27
2022-12-11T00:48:16.491Z,20.83
2022-12-11T00:50:43.171Z,19.10
2022-12-11T00:53:09.933Z,19.23
2022-12-11T00:55:38.837Z,20.67
2022-12-11T00:58:08.603Z,20.50
2022-12-11T01:00:37.630Z,20.02
2022-12-11T01:03:04.974Z,20.45
2022-12-11T01:05:32.216Z,20.05
2022-12-11T01:07:59.189Z,22.30
2022-12-11T01:10:26.772Z,20.42
2022-12-11T01:12:59.746Z,21.70
2022-12-11T01:15:29.714Z,21.67
2022-12-11T01:17:56.864Z,22.10
2022-12-11T01:20:24.942Z,22.38
2022-12-11T01:23:01.752Z,22.63
2022-12-11T01:25:31.438Z,21.08
2022-12-11T01:28:00.329Z,23.40
2022-12-11T01:30:29.353Z,22.00
2022-12-11T01:33:01.146Z,21.58
2022-12-11T01:35:30.406Z,23.88
2022-12-11T01:37:57.152Z,23.87
2022-12-11T01:40:26.564Z,23.02
2022-12-11T01:42:55.776Z,22.70
2022-12-11T01:45:24.702Z,23.47
2022-12-11T01:48:00.006Z,22.60
2022-12-11T01:50:30.926Z,21.98
2022-12-11T01:53:00.651Z,23.10
2022-12-11T01:55:27.401Z,22.73
2022-12-11T01:58:01.326Z,21.05
2022-12-11T02:00:28.041Z,23.38
2022-12-11T02:02:54.803Z,21.75
2022-12-11T02:05:21.603Z,22.27
2022-12-11T02:07:55.329Z,23.25
2022-12-11T02:10:32.190Z,23.38
2022-12-11T02:13:13.256Z,22.05
2022-12-11T02:16:04.882Z,22.80
2022-12-11T02:18:36.661Z,22.60
2022-12-11T02:21:25.048Z,21.98
2022-12-11T02:24:20.127Z,22.98
2022-12-11T02:27:16.786Z,21.80
2022-12-11T02:29:55.653Z,22.55
2022-12-11T02:32:39.916Z,24.50
2022-12-11T02:35:21.568Z,21.88
2022-12-11T02:37:54.504Z,21.38
2022-12-11T02:40:28.070Z,22.00
2022-12-11T02:43:01.132Z,23.00
2022-12-11T02:45:29.052Z,21.83
2022-12-11T02:47:58.857Z,22.23
2022-12-11T02:50:26.994Z,23.10
2022-12-11T02:52:57.387Z,22.35
2022-12-11T02:55:27.564Z,22.75
2022-12-11T03:00:31.477Z,22.38
2022-12-11T03:02:58.464Z,22.90
2022-12-11T03:05:27.960Z,23.50
2022-12-11T03:07:54.834Z,22.30
2022-12-11T03:10:21.587Z,22.75
2022-12-11T03:12:53.608Z,21.38
2022-12-11T03:15:23.959Z,22.00
2022-12-11T03:18:12.866Z,21.98
2022-12-11T03:20:51.817Z,21.88
2022-12-11T03:23:31.511Z,23.10
2022-12-11T03:26:18.655Z,23.45
2022-12-11T03:29:02.423Z,21.75
2022-12-11T03:31:43.585Z,21.75
2022-12-11T03:34:18.066Z,21.80
2022-12-11T03:36:49.116Z,21.75
2022-12-11T03:39:27.080Z,20.88
2022-12-11T03:41:55.648Z,19.10
2022-12-11T03:44:24.075Z,19.52
2022-12-11T03:46:53.824Z,18.90
2022-12-11T03:49:27.905Z,20.33
2022-12-11T03:51:58.010Z,19.48
2022-12-11T03:54:25.983Z,19.48
2022-12-11T03:56:57.500Z,19.67
2022-12-11T03:59:24.618Z,20.48
2022-12-11T04:01:51.587Z,20.13
2022-12-11T04:04:20.861Z,20.33
2022-12-11T04:06:47.524Z,18.83
2022-12-11T04:09:18.736Z,19.63
2022-12-11T04:11:45.431Z,20.90
2022-12-11T04:14:32.539Z,18.65
2022-12-11T04:17:00.802Z,21.38
2022-12-11T04:19:46.423Z,20.52
2022-12-11T04:22:33.481Z,20.52
2022-12-11T04:25:04.950Z,20.20
2022-12-11T04:27:52.998Z,20.33
2022-12-11T04:30:22.554Z,20.10
2022-12-11T04:32:52.937Z,22.23
2022-12-11T04:35:20.424Z,20.02
2022-12-11T04:37:47.385Z,19.17
2022-12-11T04:40:16.973Z,18.58
2022-12-11T04:42:43.959Z,19.48
2022-12-11T04:45:11.383Z,20.15
2022-12-11T04:47:41.688Z,22.67
2022-12-11T04:50:10.922Z,23.45
2022-12-11T04:52:37.615Z,23.47
2022-12-11T04:55:06.230Z,22.40
2022-12-11T04:57:33.315Z,23.23
2022-12-11T05:00:02.249Z,22.83
2022-12-11T05:02:28.936Z,24.67
2022-12-11T05:04:58.069Z,24.25
2022-12-11T05:07:24.720Z,26.83
2022-12-11T05:09:51.371Z,26.13
2022-12-11T05:12:18.079Z,24.92
2022-12-11T05:14:44.808Z,24.08
2022-12-11T05:17:13.948Z,24.88
2022-12-11T05:19:40.928Z,24.50
2022-12-11T05:22:09.849Z,24.77
2022-12-11T05:24:36.595Z,24.60
2022-12-11T05:27:03.266Z,24.15
2022-12-11T05:29:32.266Z,26.05
2022-12-11T05:31:58.917Z,26.42
2022-12-11T05:34:27.876Z,25.75
2022-12-11T05:36:56.927Z,26.15
2022-12-11T05:39:23.591Z,24.52
2022-12-11T05:41:50.399Z,24.52
2022-12-11T05:44:17.056Z,24.73
2022-12-11T05:46:43.767Z,24.15
2022-12-11T05:49:11.089Z,24.08
2022-12-11T05:51:39.568Z,25.13
2022-12-11T05:54:08.509Z,23.85
2022-12-11T05:56:35.539Z,26.13
2022-12-11T05:59:03.602Z,24.45
2022-12-11T06:01:41.550Z,24.65
2022-12-11T06:04:12.165Z,26.13
2022-12-11T06:06:40.344Z,25.58
2022-12-11T06:09:15.948Z,26.30
2022-12-11T06:11:45.296Z,23.08
2022-12-11T06:14:14.980Z,23.43
2022-12-11T06:16:43.874Z,24.67
2022-12-11T06:19:18.472Z,26.10
2022-12-11T06:21:48.814Z,25.30
2022-12-11T06:24:20.147Z,25.80
2022-12-11T06:26:46.864Z,24.73
2022-12-11T06:29:13.571Z,23.83
2022-12-11T06:31:40.610Z,23.45
2022-12-11T06:34:13.161Z,24.10
2022-12-11T06:36:40.762Z,24.75
2022-12-11T06:39:07.431Z,25.73
2022-12-11T06:41:34.127Z,23.80
2022-12-11T06:44:03.581Z,24.02
2022-12-11T06:46:32.669Z,25.77
2022-12-11T06:49:02.218Z,24.48
2022-12-11T06:51:32.764Z,27.10
2022-12-11T06:53:59.607Z,26.15
2022-12-11T06:56:28.545Z,26.48
2022-12-11T06:58:57.036Z,25.15
2022-12-11T07:01:27.401Z,25.02
2022-12-11T07:03:56.354Z,25.60
2022-12-11T07:06:23.768Z,27.60
2022-12-11T07:08:50.623Z,24.02
2022-12-11T07:11:20.794Z,27.05
2022-12-11T07:16:16.321Z,24.67
2022-12-11T07:18:46.833Z,24.98
2022-12-11T07:21:14.192Z,26.45
2022-12-11T07:23:43.598Z,26.17
2022-12-11T07:26:13.319Z,26.60
2022-12-11T07:28:40.675Z,24.60
2022-12-11T07:31:20.540Z,25.27
2022-12-11T07:33:47.656Z,24.98
2022-12-11T07:36:16.796Z,24.75
2022-12-11T07:38:43.630Z,23.85
2022-12-11T07:41:14.010Z,25.60
2022-12-11T07:43:45.825Z,25.20
2022-12-11T07:46:15.019Z,26.42
2022-12-11T07:48:43.604Z,23.53
2022-12-11T07:51:27.822Z,24.65
2022-12-11T07:54:00.377Z,24.92
2022-12-11T07:56:28.324Z,24.75
2022-12-11T07:58:55.489Z,25.17
2022-12-11T08:01:25.947Z,26.30
2022-12-11T08:03:53.912Z,25.48
2022-12-11T08:06:26.990Z,24.67
2022-12-11T08:08:57.075Z,25.95
2022-12-11T08:11:26.579Z,25.05
2022-12-11T08:13:53.490Z,25.23
2022-12-11T08:16:23.154Z,23.50
2022-12-11T08:18:50.288Z,25.55
2022-12-11T08:21:27.622Z,23.98
2022-12-11T08:23:55.394Z,25.77
2022-12-11T08:26:25.336Z,24.42
2022-12-11T08:28:52.201Z,25.45
2022-12-11T08:31:22.052Z,25.45
2022-12-11T08:33:53.888Z,24.10
2022-12-11T08:36:22.137Z,25.45
2022-12-11T08:38:49.877Z,24.00
2022-12-11T08:41:19.604Z,23.42
2022-12-11T08:43:49.182Z,24.40
2022-12-11T08:46:18.668Z,22.70
2022-12-11T08:48:48.122Z,21.30
2022-12-11T08:51:18.171Z,24.13
2022-12-11T08:53:44.951Z,22.25
2022-12-11T08:56:13.680Z,23.20
2022-12-11T08:58:40.588Z,22.90
2022-12-11T09:01:27.606Z,22.75
2022-12-11T09:03:55.793Z,21.70
2022-12-11T09:06:24.532Z,23.27
2022-12-11T09:08:53.292Z,24.02
2022-12-11T09:11:23.477Z,22.73
2022-12-11T09:13:50.791Z,22.25
2022-12-11T09:16:19.989Z,23.67
2022-12-11T09:18:49.428Z,21.03
2022-12-11T09:21:18.541Z,20.83
2022-12-11T09:23:45.744Z,21.83
2022-12-11T09:26:14.777Z,22.98
2022-12-11T09:28:46.293Z,20.50
2022-12-11T09:31:19.714Z,19.92
2022-12-11T09:33:49.922Z,19.70
2022-12-11T09:38:46.234Z,20.40
2022-12-11T09:41:22.344Z,18.77
2022-12-11T09:44:09.902Z,18.92
2022-12-11T09:46:37.369Z,18.92
2022-12-11T09:49:09.820Z,20.85
2022-12-11T09:51:46.804Z,20.15
2022-12-11T09:54:15.072Z,20.35
2022-12-11T09:56:58.866Z,20.92
2022-12-11T09:59:46.195Z,19.38
2022-12-11T10:02:36.587Z,20.70
2022-12-11T10:05:28.403Z,19.58
2022-12-11T10:08:20.095Z,19.58
2022-12-11T10:10:58.539Z,20.95
2022-12-11T10:13:45.775Z,19.67
2022-12-11T10:16:32.692Z,19.60
2022-12-11T10:19:00.303Z,19.20
2022-12-11T10:21:29.690Z,16.83
2022-12-11T10:24:05.748Z,17.98
2022-12-11T10:26:32.414Z,18.75
2022-12-11T10:29:03.115Z,19.05
2022-12-11T10:31:43.460Z,18.63
2022-12-11T10:34:18.710Z,16.95
2022-12-11T10:36:45.383Z,17.33
2022-12-11T10:39:22.851Z,17.55
2022-12-11T10:41:51.880Z,17.13
2022-12-11T10:44:20.031Z,17.23
2022-12-11T10:47:02.354Z,16.55
2022-12-11T10:49:31.496Z,16.70
2022-12-11T10:52:01.464Z,16.52
2022-12-11T10:54:40.527Z,15.25
2022-12-11T10:57:09.551Z,16.88
2022-12-11T10:59:46.725Z,16.83
2022-12-11T11:02:33.079Z,16.52
2022-12-11T11:05:01.559Z,16.38
2022-12-11T11:07:34.331Z,15.70
2022-12-11T11:10:16.674Z,16.08
2022-12-11T11:12:48.549Z,15.20
2022-12-11T11:15:35.507Z,16.45
2022-12-11T11:18:12.621Z,14.55
2022-12-11T11:20:47.316Z,16.30
2022-12-11T11:23:16.462Z,16.58
2022-12-11T11:25:53.895Z,17.33
2022-12-11T11:28:42.814Z,15.90
2022-12-11T11:31:13.804Z,16.63
2022-12-11T11:34:03.960Z,14.95
2022-12-11T11:39:04.915Z,13.77
2022-12-11T11:41:40.479Z,14.05
2022-12-11T11:44:13.197Z,16.73
2022-12-11T11:46:47.782Z,15.88
2022-12-11T11:49:44.809Z,16.63
2022-12-11T11:52:41.973Z,15.50
2022-12-11T11:55:22.503Z,16.98
2022-12-11T11:58:10.908Z,14.70
2022-12-11T12:00:37.668Z,15.40
2022-12-11T12:03:11.139Z,15.18
2022-12-11T12:05:52.921Z,15.93
2022-12-11T12:08:31.662Z,14.98
2022-12-11T12:11:12.593Z,14.43
2022-12-11T12:13:49.474Z,13.43
2022-12-11T12:16:52.641Z,15.23
2022-12-11T12:19:38.632Z,15.00
2022-12-11T12:22:36.664Z,14.20
2022-12-11T12:25:23.852Z,14.68
2022-12-11T12:27:55.823Z,14.75
2022-12-11T12:30:24.707Z,14.00
2022-12-11T12:32:57.344Z,14.85
2022-12-11T12:35:37.002Z,16.05
2022-12-11T12:38:32.701Z,15.07
2022-12-11T12:40:59.449Z,14.00
2022-12-11T12:44:03.872Z,13.77
2022-12-11T12:46:39.771Z,14.82
2022-12-11T12:49:14.642Z,14.70
2022-12-11T12:51:43.528Z,14.20
2022-12-11T12:54:16.629Z,13.98
2022-12-11T12:56:45.177Z,13.02
2022-12-11T12:59:23.935Z,13.38
2022-12-11T13:02:13.998Z,13.13
2022-12-11T13:04:58.675Z,12.93
2022-12-11T13:07:31.335Z,12.73
2022-12-11T13:10:25.809Z,13.10
2022-12-11T13:12:52.793Z,12.65
2022-12-11T13:15:45.222Z,13.32
2022-12-11T13:18:34.813Z,13.20
2022-12-11T13:21:03.036Z,13.25
2022-12-11T13:23:34.429Z,14.45
2022-12-11T13:26:03.888Z,13.63
2022-12-11T13:28:39.512Z,14.30
2022-12-11T13:31:15.275Z,13.57
2022-12-11T13:33:44.947Z,14.25
2022-12-11T13:36:17.829Z,14.10
2022-12-11T13:39:14.968Z,14.88
2022-12-11T13:41:46.613Z,14.02
2022-12-11T13:44:24.581Z,13.88
2022-12-11T13:46:52.981Z,14.55
2022-12-11T13:49:26.553Z,14.55
2022-12-11T13:51:58.895Z,14.20
2022-12-11T13:54:27.263Z,14.30
2022-12-11T13:57:18.321Z,13.27
2022-12-11T13:59:53.827Z,13.48
2022-12-11T14:02:31.885Z,13.32
2022-12-11T14:05:04.876Z,14.50
2022-12-11T14:07:38.056Z,14.20
2022-12-11T14:10:28.333Z,12.95
2022-12-11T14:13:21.679Z,13.15
2022-12-11T14:15:48.531Z,13.80
2022-12-11T14:18:23.265Z,13.60
2022-12-11T14:21:02.036Z,14.40
2022-12-11T14:23:31.884Z,14.48
2022-12-11T14:26:01.216Z,14.95
2022-12-11T14:28:41.190Z,15.27
2022-12-11T14:31:08.095Z,15.52
2022-12-11T14:33:43.466Z,14.23
2022-12-11T14:36:15.283Z,14.43
2022-12-11T14:38:53.134Z,14.13
2022-12-11T14:41:36.525Z,14.95
2022-12-11T14:44:07.913Z,13.05
2022-12-11T14:46:44.219Z,11.90
2022-12-11T14:49:16.962Z,11.23
2022-12-11T14:51:46.923Z,12.07
2022-12-11T14:54:24.672Z,11.43
2022-12-11T14:56:51.440Z,11.98
2022-12-11T14:59:30.145Z,11.95
2022-12-11T15:02:01.683Z,11.63
2022-12-11T15:04:31.381Z,11.88
2022-12-11T15:07:01.245Z,10.98
2022-12-11T15:09:36.289Z,12.45
2022-12-11T15:12:29.484Z,13.43
2022-12-11T15:15:03.285Z,13.48
2022-12-11T15:17:30.753Z,13.18
2022-12-11T15:20:07.372Z,13.77
2022-12-11T15:22:35.321Z,13.25
2022-12-11T15:25:02.529Z,14.25
2022-12-11T15:27:35.635Z,13.00
2022-12-11T15:30:28.993Z,14.27
2022-12-11T15:33:24.136Z,13.13
2022-12-11T15:36:34.955Z,13.77
2022-12-11T15:39:03.273Z,13.07
2022-12-11T15:41:33.309Z,14.30
2022-12-11T15:44:02.584Z,14.05
2022-12-11T15:46:30.043Z,14.03
2022-12-11T15:48:59.170Z,14.45
2022-12-11T15:51:27.409Z,13.95
2022-12-11T15:53:54.140Z,14.27
2022-12-11T15:56:20.861Z,15.05
2022-12-11T15:58:51.202Z,13.90
2022-12-11T16:01:20.800Z,14.23
2022-12-11T16:03:50.442Z,13.50
2022-12-11T16:06:17.192Z,13.57
2022-12-11T16:08:43.867Z,13.45
2022-12-11T16:11:13.464Z,14.32
2022-12-11T16:13:42.389Z,13.27
2022-12-11T16:16:11.507Z,12.52
2022-12-11T16:18:38.235Z,13.35
2022-12-11T16:21:06.436Z,13.77
2022-12-11T16:23:33.111Z,13.43
2022-12-11T16:26:07.127Z,13.23
2022-12-11T16:28:33.913Z,13.98
2022-12-11T16:31:00.680Z,13.20
2022-12-11T16:33:27.503Z,13.70
2022-12-11T16:35:56.392Z,13.38
2022-12-11T16:38:23.126Z,12.63
2022-12-11T16:40:49.784Z,13.73
2022-12-11T16:43:16.561Z,13.05
2022-12-11T16:45:43.397Z,12.82
2022-12-11T16:48:10.231Z,13.70
2022-12-11T16:50:40.282Z,13.35
2022-12-11T16:53:07.036Z,12.27
2022-12-11T16:55:33.945Z,12.32
2022-12-11T16:58:01.300Z,12.13
2022-12-11T17:00:28.181Z,12.77
2022-12-11T17:02:55.418Z,13.48
2022-12-11T17:05:24.861Z,12.18
2022-12-11T17:07:51.701Z,13.65
2022-12-11T17:10:18.491Z,13.65
2022-12-11T17:12:47.421Z,13.35
2022-12-11T17:15:14.382Z,12.68
2022-12-11T17:17:44.069Z,13.63
2022-12-11T17:20:14.006Z,12.82
2022-12-11T17:22:41.046Z,11.55
2022-12-11T17:25:08.227Z,13.90
2022-12-11T17:27:34.937Z,11.93
2022-12-11T17:30:01.654Z,12.55
2022-12-11T17:32:30.510Z,11.98
2022-12-11T17:34:59.616Z,13.30
2022-12-11T17:37:26.297Z,12.20
2022-12-11T17:39:53.043Z,12.27
2022-12-11T17:42:19.755Z,11.90
2022-12-11T17:44:49.053Z,12.20
2022-12-11T17:47:15.764Z,12.10
2022-12-11T17:49:42.724Z,11.80
2022-12-11T17:52:11.951Z,12.60
2022-12-11T17:54:39.329Z,11.25
2022-12-11T17:57:06.790Z,12.77
2022-12-11T17:59:35.872Z,10.65
2022-12-11T18:02:04.724Z,11.38
2022-12-11T18:04:31.442Z,11.93
2022-12-11T18:06:58.128Z,10.98
2022-12-11T18:09:24.781Z,10.50
2022-12-11T18:11:53.942Z,12.68
2022-12-11T18:14:23.207Z,11.27
2022-12-11T18:16:52.807Z,11.80
2022-12-11T18:19:22.761Z,12.23
2022-12-11T18:21:49.640Z,11.57
2022-12-11T18:24:16.451Z,12.60
2022-12-11T18:26:43.324Z,13.10
2022-12-11T18:29:12.620Z,11.40
2022-12-11T18:31:42.643Z,12.67
2022-12-11T18:34:10.867Z,10.57
2022-12-11T18:36:37.728Z,9.77
2022-12-11T18:39:04.418Z,10.15
2022-12-11T18:41:33.819Z,10.13
2022-12-11T18:44:09.354Z,9.45
2022-12-11T18:46:36.741Z,9.60
2022-12-11T18:49:08.418Z,9.55
2022-12-11T18:51:39.740Z,9.77
2022-12-11T18:54:06.516Z,9.75
2022-12-11T18:56:33.280Z,9.85
2022-12-11T18:59:03.488Z,10.32
2022-12-11T19:04:06.531Z,9.48
2022-12-11T19:06:38.250Z,11.00
2022-12-11T19:09:06.571Z,10.07
2022-12-11T19:11:35.358Z,10.02
2022-12-11T19:14:04.013Z,9.43
2022-12-11T19:16:36.703Z,9.25
2022-12-11T19:19:09.979Z,8.95
2022-12-11T19:21:37.825Z,9.23
2022-12-11T19:24:06.599Z,9.10
2022-12-11T19:26:33.709Z,8.88
2022-12-11T19:29:03.837Z,9.10
2022-12-11T19:33:58.340Z,9.75
2022-12-11T19:36:27.630Z,8.95
2022-12-11T19:39:01.108Z,9.40
2022-12-11T19:41:29.688Z,10.30
2022-12-11T19:44:00.226Z,9.95
2022-12-11T19:46:30.087Z,9.55
2022-12-11T19:49:00.152Z,9.75
2022-12-11T19:51:38.216Z,9.73
2022-12-11T19:54:09.242Z,9.35
2022-12-11T19:56:41.202Z,9.65
2022-12-11T19:59:10.803Z,9.48
2022-12-11T20:01:38.496Z,10.48
2022-12-11T20:04:11.563Z,10.07
2022-12-11T20:06:40.860Z,10.38
2022-12-11T20:09:12.515Z,9.93
2022-12-11T20:11:47.309Z,9.23
2022-12-11T20:14:23.057Z,10.15
2022-12-11T20:19:36.998Z,9.60
2022-12-11T20:22:03.760Z,8.95
2022-12-11T20:24:30.495Z,9.35
2022-12-11T20:26:57.609Z,9.00
2022-12-11T20:29:26.526Z,10.07
2022-12-11T20:31:55.599Z,10.00
2022-12-11T20:34:22.381Z,9.82
2022-12-11T20:36:55.540Z,9.85
2022-12-11T20:39:22.574Z,11.07
2022-12-11T20:41:51.671Z,10.98
2022-12-11T20:44:21.230Z,9.60
2022-12-11T20:46:50.704Z,9.75
2022-12-11T20:49:17.400Z,10.88
2022-12-11T20:51:46.472Z,11.07
2022-12-11T20:54:15.405Z,10.77
2022-12-11T20:56:42.179Z,12.27
2022-12-11T20:59:10.623Z,11.60
2022-12-11T21:01:37.386Z,11.05
2022-12-11T21:04:04.524Z,11.45
2022-12-11T21:06:34.263Z,11.18
2022-12-11T21:09:04.881Z,11.40
2022-12-11T21:11:31.773Z,11.05
2022-12-11T21:14:01.087Z,11.20
2022-12-11T21:16:28.587Z,11.30
2022-12-11T21:19:01.647Z,11.02
2022-12-11T21:21:31.011Z,11.45
2022-12-11T21:23:58.023Z,11.30
2022-12-11T21:26:24.988Z,10.80
2022-12-11T21:28:52.583Z,10.13
2022-12-11T21:31:20.155Z,10.13
2022-12-11T21:33:47.522Z,10.45
2022-12-11T21:36:20.934Z,10.40
2022-12-11T21:38:48.281Z,10.85
2022-12-11T21:41:21.639Z,11.65
2022-12-11T21:46:38.226Z,11.73
2022-12-11T21:49:05.220Z,11.02
2022-12-11T21:51:38.553Z,11.75
2022-12-11T21:54:09.245Z,11.68
2022-12-11T21:56:36.342Z,11.20
2022-12-11T21:59:03.219Z,10.73
2022-12-11T22:01:40.899Z,11.50
2022-12-11T22:04:11.012Z,10.30
2022-12-11T22:06:37.941Z,11.93
2022-12-11T22:09:07.355Z,11.27
2022-12-11T22:11:35.729Z,11.15
2022-12-11T22:14:03.459Z,10.63
2022-12-11T22:16:30.800Z,11.18
2022-12-11T22:18:58.169Z,11.90
2022-12-11T22:21:25.529Z,11.25
2022-12-11T22:23:54.928Z,12.25
2022-12-11T22:26:26.988Z,11.73
2022-12-11T22:28:54.893Z,12.27
2022-12-11T22:31:23.845Z,12.10
2022-12-11T22:33:53.638Z,11.50
2022-12-11T22:36:21.536Z,11.38
2022-12-11T22:38:48.373Z,11.10
2022-12-11T22:41:27.402Z,10.48
2022-12-11T22:43:55.176Z,11.93
2022-12-11T22:46:24.266Z,11.70
2022-12-11T22:48:53.810Z,12.23
2022-12-11T22:51:20.685Z,11.25
2022-12-11T22:53:49.799Z,11.60
2022-12-11T22:56:19.512Z,12.20
2022-12-11T22:58:46.464Z,10.90
2022-12-11T23:01:20.023Z,11.70
2022-12-11T23:03:47.142Z,12.68
2022-12-11T23:06:15.715Z,11.35
2022-12-11T23:08:43.747Z,12.80
2022-12-11T23:11:24.349Z,11.55
2022-12-11T23:13:54.456Z,11.25
2022-12-11T23:16:22.557Z,11.77
2022-12-11T23:18:49.558Z,11.73
2022-12-11T23:21:21.638Z,13.82
2022-12-11T23:23:48.978Z,13.10
2022-12-11T23:26:18.678Z,11.95
2022-12-11T23:28:46.245Z,10.80
2022-12-11T23:31:13.582Z,11.10
2022-12-11T23:33:42.599Z,11.18
2022-12-11T23:36:09.838Z,10.80
2022-12-11T23:38:36.961Z,11.70
2022-12-11T23:41:05.164Z,10.52
2022-12-11T23:43:33.569Z,11.75
2022-12-11T23:46:02.800Z,12.27
2022-12-11T23:48:29.498Z,11.03
2022-12-11T23:51:00.881Z,11.82
2022-12-11T23:53:28.527Z,10.45
2022-12-11T23:55:55.388Z,10.85
2022-12-11T23:58:24.537Z,10.73
